createdAt,value
2018-11-04T00:09:50.191Z,17.63
2018-11-04T00:19:53.621Z,17.80
2018-11-04T00:29:57.742Z,17.00
2018-11-04T00:40:01.051Z,17.13
2018-11-04T00:50:04.924Z,16.47
2018-11-04T01:00:12.415Z,16.57
2018-11-04T01:10:16.001Z,15.80
2018-11-04T01:20:19.350Z,15.40
2018-11-04T01:30:22.771Z,16.40
2018-11-04T01:40:26.171Z,17.60
2018-11-04T01:50:29.687Z,16.07
2018-11-04T02:00:33.105Z,14.47
2018-11-04T02:10:36.596Z,15.47
2018-11-04T02:20:43.095Z,15.10
2018-11-04T02:30:46.720Z,15.30
2018-11-04T02:40:50.242Z,14.87
2018-11-04T02:50:53.632Z,14.03
2018-11-04T03:00:57.007Z,14.60
2018-11-04T03:11:00.363Z,14.33
2018-11-04T03:21:03.737Z,14.30
2018-11-04T03:31:07.215Z,14.07
2018-11-04T03:41:11.338Z,13.60
2018-11-04T03:51:15.595Z,13.93
2018-11-04T04:01:19.057Z,13.68
2018-11-04T04:11:23.061Z,14.17
2018-11-04T04:21:26.517Z,14.23
2018-11-04T04:31:29.936Z,14.47
2018-11-04T04:41:33.288Z,17.53
2018-11-04T04:51:37.869Z,15.27
2018-11-04T05:01:41.370Z,16.30
2018-11-04T05:11:50.518Z,15.70
2018-11-04T05:21:53.934Z,15.93
2018-11-04T05:31:57.287Z,15.97
2018-11-04T05:42:00.743Z,18.17
2018-11-04T05:52:04.186Z,17.60
2018-11-04T06:02:07.683Z,16.67
2018-11-04T06:12:11.010Z,17.87
2018-11-04T06:22:15.588Z,17.60
2018-11-04T06:32:18.958Z,17.70
2018-11-04T06:42:22.482Z,20.80
2018-11-04T06:52:26.526Z,22.83
2018-11-04T07:02:30.032Z,23.60
2018-11-04T07:12:33.373Z,24.40
2018-11-04T07:22:36.854Z,25.43
2018-11-04T07:32:40.468Z,26.23
2018-11-04T07:42:48.351Z,26.80
2018-11-04T07:52:52.702Z,26.43
2018-11-04T08:13:05.908Z,28.90
2018-11-04T08:23:09.474Z,28.43
2018-11-04T08:33:12.937Z,25.88
2018-11-04T08:43:22.022Z,25.63
2018-11-04T08:53:25.427Z,25.73
2018-11-04T09:03:28.839Z,25.97
2018-11-04T09:13:32.335Z,26.83
2018-11-04T09:23:36.294Z,26.05
2018-11-04T09:33:39.871Z,25.55
2018-11-04T09:43:43.321Z,26.70
2018-11-04T09:53:47.687Z,24.67
2018-11-04T10:03:51.038Z,26.00
2018-11-04T10:13:54.874Z,25.43
2018-11-04T10:23:58.768Z,25.27
2018-11-04T10:34:02.251Z,24.70
2018-11-04T10:44:05.676Z,23.80
2018-11-04T10:54:09.592Z,25.75
2018-11-04T11:04:13.047Z,25.17
2018-11-04T11:14:18.391Z,23.85
2018-11-04T11:24:22.629Z,24.17
2018-11-04T11:34:26.152Z,23.23
2018-11-04T11:44:30.226Z,22.33
2018-11-04T11:54:33.865Z,23.00
2018-11-04T12:04:37.280Z,22.90
2018-11-04T12:14:40.880Z,22.37
2018-11-04T12:24:44.408Z,23.60
2018-11-04T12:34:48.563Z,23.03
2018-11-04T12:44:51.977Z,23.07
2018-11-04T12:54:55.817Z,22.53
2018-11-04T13:04:59.334Z,23.13
2018-11-04T13:15:02.808Z,23.50
2018-11-04T13:25:10.360Z,24.70
2018-11-04T13:35:14.186Z,25.45
2018-11-04T13:45:19.097Z,25.07
2018-11-04T13:55:22.611Z,25.03
2018-11-04T14:05:26.337Z,25.47
2018-11-04T14:15:29.744Z,25.17
2018-11-04T14:25:33.198Z,25.30
2018-11-04T14:35:36.662Z,25.03
2018-11-04T14:45:40.846Z,25.67
2018-11-04T14:55:44.196Z,26.73
2018-11-04T15:05:49.395Z,25.90
2018-11-04T15:15:52.928Z,24.57
2018-11-04T15:25:56.846Z,25.77
2018-11-04T15:36:00.225Z,25.80
2018-11-04T15:46:03.957Z,26.57
2018-11-04T15:56:07.304Z,25.83
2018-11-04T16:06:10.720Z,26.00
2018-11-04T16:16:14.087Z,27.00
2018-11-04T16:26:18.924Z,34.70
2018-11-04T16:36:22.460Z,27.93
2018-11-04T16:46:25.840Z,28.53
2018-11-04T16:56:29.286Z,28.00
2018-11-04T17:06:32.949Z,28.93
2018-11-04T17:16:36.339Z,28.43
2018-11-04T17:26:40.444Z,28.17
2018-11-04T17:36:43.940Z,29.30
2018-11-04T17:46:53.324Z,30.90
2018-11-04T17:56:56.689Z,29.70
2018-11-04T18:07:00.073Z,29.83
2018-11-04T18:17:03.712Z,28.45
2018-11-04T18:27:07.074Z,29.23
2018-11-04T18:37:10.450Z,28.60
2018-11-04T18:47:13.852Z,29.40
2018-11-04T18:57:17.387Z,29.10
2018-11-04T19:07:20.964Z,26.93
2018-11-04T19:17:24.349Z,27.77
2018-11-04T19:27:27.840Z,27.80
2018-11-04T19:37:31.401Z,28.07
2018-11-04T19:47:34.706Z,26.73
2018-11-04T19:57:39.084Z,27.73
2018-11-04T20:07:42.679Z,26.73
2018-11-04T20:17:46.753Z,30.23
2018-11-04T20:27:55.471Z,26.40
2018-11-04T20:37:58.931Z,25.30
2018-11-04T20:48:07.568Z,24.90
2018-11-04T20:58:11.113Z,23.47
2018-11-04T21:08:14.424Z,23.37
2018-11-04T21:18:17.853Z,23.07
2018-11-04T21:28:21.560Z,22.85
2018-11-04T21:38:25.264Z,22.20
2018-11-04T21:48:29.141Z,20.30
2018-11-04T21:58:32.596Z,19.70
2018-11-04T22:08:36.022Z,20.20
2018-11-04T22:18:40.019Z,19.53
2018-11-04T22:28:43.829Z,19.37
2018-11-04T22:38:47.206Z,20.40
2018-11-04T22:48:51.322Z,18.60
2018-11-04T22:58:54.698Z,18.85
2018-11-04T23:08:58.534Z,19.27
2018-11-04T23:19:01.912Z,17.30
2018-11-04T23:29:05.321Z,18.17
2018-11-04T23:39:09.598Z,17.50
2018-11-04T23:49:12.942Z,19.48
2018-11-04T23:59:16.317Z,17.70
